KHM weather

Kanti Airport
Kanti, Sagaing Division, Burma

Public forecast

Using degrees Celsius for public forecast. Weather courtesy of forecast.io.

Closest aviation weather report (METAR) to Kanti Airport

Report is more than 6 hours old.

Closest report is Dibrugarh Airport, 96.5 nm (178.7 km) NNW. Retrieved 2020/02/22 12:00 UTC (11 hours ago):

VEMN 221200Z 00000KT 3000 HZ FEW020 BKN100 24/17 Q1017 NOSIG

Closest aviation forecast (TAF) to Kanti Airport

Forecast is more than 12 hours old.

Closest forecast is Jorhat Airport, 92.2 nm (170.7 km) WNW. Retrieved 2020/02/21 12:30 UTC (1 day ago):

TAF VEJT 210930Z 2112/2124 02005KT 6000 SCT250 BECMG 2113/2114 VRB02KT 5000 BR FEW100 SCT250 BECMG 2115/2116 3000 BR BECMG 2122/2123 1500 BR SCT090 SCT250